CheckWX is a tool to help pilots better visualize weather data.  It is not intended as a substitute for an official pre-flight weather briefing.

09:11:33 UTC

MUCF METAR
Jaime Gonzalez Airport
Cienfuegos, Cuba
Current

13 mins ago

MUCF 040859Z AUTO 10004KT 24/24 Q1014
Observed
Jul-4 @ 08:59 UTC
Wind
  • 100° at 4 KTS
Visibility
Cloud Levels
Temperature
24°C / 75°F
Dewpoint
24°C / 75°F
Humidity
100%
Altimeter
29.94" Hg
Pressure
1013.92 hPa
Previous

1 hour ago

MUCF 040759Z AUTO 08003KT 24/24 Q1014
Observed
Jul-4 @ 07:59 UTC
Wind
  • 080° at 3 KTS
Visibility
Cloud Levels
Temperature
24°C / 75°F
Dewpoint
24°C / 75°F
Humidity
100%
Altimeter
29.94" Hg
Pressure
1013.92 hPa
Previous

2 hours ago

MUCF 040659Z AUTO 10003KT 24/24 Q1014
Observed
Jul-4 @ 06:59 UTC
Wind
  • 100° at 3 KTS
Visibility
Cloud Levels
Temperature
24°C / 75°F
Dewpoint
24°C / 75°F
Humidity
100%
Altimeter
29.94" Hg
Pressure
1013.92 hPa